createdAt,value
2017-09-10T00:00:13.707Z,33.90
2017-09-10T00:01:13.680Z,34.00
2017-09-10T00:02:13.661Z,33.40
2017-09-10T00:03:13.638Z,34.70
2017-09-10T00:04:13.615Z,32.50
2017-09-10T00:05:13.593Z,31.50
2017-09-10T00:06:13.576Z,31.00
2017-09-10T00:07:13.549Z,30.30
2017-09-10T00:08:13.530Z,33.30
2017-09-10T00:09:13.504Z,28.30
2017-09-10T00:10:13.482Z,30.40
2017-09-10T00:11:13.460Z,29.50
2017-09-10T00:12:13.438Z,28.50
2017-09-10T00:13:13.415Z,30.10
2017-09-10T00:14:13.395Z,28.40
2017-09-10T00:15:13.375Z,27.70
2017-09-10T00:16:13.350Z,25.80
2017-09-10T00:17:13.327Z,23.50
2017-09-10T00:18:13.306Z,25.10
2017-09-10T00:19:13.283Z,26.10
2017-09-10T00:20:13.261Z,25.10
2017-09-10T00:21:13.238Z,25.60
2017-09-10T00:22:13.219Z,27.30
2017-09-10T00:23:13.194Z,23.70
2017-09-10T00:24:13.173Z,26.30
2017-09-10T00:25:13.150Z,24.80
2017-09-10T00:26:13.128Z,23.90
2017-09-10T00:27:13.106Z,23.00
2017-09-10T00:28:13.085Z,22.30
2017-09-10T00:29:13.062Z,26.40
2017-09-10T00:30:13.040Z,23.50
2017-09-10T00:31:13.022Z,23.30
2017-09-10T00:32:12.996Z,26.90
2017-09-10T00:33:12.972Z,22.30
2017-09-10T00:34:12.950Z,25.40
2017-09-10T00:35:12.930Z,23.60
2017-09-10T00:36:12.907Z,21.50
2017-09-10T00:37:12.884Z,22.00
2017-09-10T00:38:12.863Z,20.40
2017-09-10T00:39:12.841Z,20.60
2017-09-10T00:40:12.818Z,20.40
2017-09-10T00:41:12.797Z,22.50
2017-09-10T00:42:12.774Z,21.70
2017-09-10T00:43:12.753Z,21.20
2017-09-10T00:44:12.730Z,20.80
2017-09-10T00:45:12.709Z,20.90
2017-09-10T00:46:12.685Z,21.70
2017-09-10T00:47:12.664Z,21.10
2017-09-10T00:48:12.640Z,21.50
2017-09-10T00:49:12.619Z,21.40
2017-09-10T00:50:12.596Z,20.40
2017-09-10T00:51:12.574Z,20.70
2017-09-10T00:52:12.553Z,20.80
2017-09-10T00:53:12.531Z,20.40
2017-09-10T00:54:12.508Z,21.30
2017-09-10T00:55:12.486Z,20.40
2017-09-10T00:56:12.465Z,21.50
2017-09-10T00:57:12.443Z,21.10
2017-09-10T00:58:12.419Z,20.60
2017-09-10T00:59:12.399Z,19.20
2017-09-10T01:00:12.382Z,21.00
2017-09-10T01:01:12.353Z,20.70
2017-09-10T01:02:12.332Z,19.60
2017-09-10T01:03:12.309Z,21.20
2017-09-10T01:04:12.289Z,21.40
2017-09-10T01:05:12.265Z,20.60
2017-09-10T01:06:12.243Z,21.10
2017-09-10T01:07:12.221Z,23.10
2017-09-10T01:08:12.201Z,22.60
2017-09-10T01:09:12.178Z,22.40
2017-09-10T01:10:12.154Z,17.50
2017-09-10T01:11:12.133Z,17.90
2017-09-10T01:12:12.111Z,19.00
2017-09-10T01:13:12.088Z,19.00
2017-09-10T01:14:12.066Z,18.10
2017-09-10T01:15:12.044Z,18.10
2017-09-10T01:16:12.023Z,16.60
2017-09-10T01:17:11.999Z,21.50
2017-09-10T01:18:11.977Z,20.00
2017-09-10T01:19:11.956Z,19.50
2017-09-10T01:20:11.933Z,19.50
2017-09-10T01:21:11.913Z,21.10
2017-09-10T01:22:11.890Z,19.10
2017-09-10T01:23:11.866Z,18.50
2017-09-10T01:24:11.846Z,22.00
2017-09-10T01:25:11.822Z,19.60
2017-09-10T01:26:11.801Z,20.50
2017-09-10T01:27:11.778Z,20.70
2017-09-10T01:28:11.756Z,18.00
2017-09-10T01:29:11.733Z,16.40
2017-09-10T01:30:11.711Z,23.50
2017-09-10T01:31:11.689Z,73.80
2017-09-10T01:32:11.669Z,105.60
2017-09-10T01:33:11.647Z,94.30
2017-09-10T01:34:11.622Z,89.80
2017-09-10T01:35:11.601Z,77.80
2017-09-10T01:36:11.578Z,60.90
2017-09-10T01:37:11.558Z,47.40
2017-09-10T01:38:11.533Z,37.50
2017-09-10T01:39:11.513Z,34.50
2017-09-10T01:40:11.491Z,37.30
2017-09-10T01:41:11.469Z,33.00
2017-09-10T01:42:11.445Z,32.50
2017-09-10T01:43:11.425Z,38.20
2017-09-10T01:44:11.402Z,30.90
2017-09-10T01:45:11.379Z,32.70
2017-09-10T01:46:11.358Z,30.20
2017-09-10T01:47:11.336Z,34.60
2017-09-10T01:48:11.317Z,30.20
2017-09-10T01:49:11.290Z,32.40
2017-09-10T01:50:11.268Z,30.00
2017-09-10T01:51:11.267Z,33.10
2017-09-10T01:52:11.225Z,25.00
2017-09-10T01:53:11.202Z,31.50
2017-09-10T01:54:11.188Z,31.40
2017-09-10T01:55:11.159Z,25.60
2017-09-10T01:56:11.136Z,26.00
2017-09-10T01:57:11.113Z,23.90
2017-09-10T01:58:11.093Z,29.00
2017-09-10T01:59:11.070Z,26.10
2017-09-10T02:00:11.048Z,26.10
2017-09-10T02:01:11.025Z,25.50
2017-09-10T02:02:11.003Z,23.10
2017-09-10T02:03:10.982Z,26.60
2017-09-10T02:04:10.960Z,24.70
2017-09-10T02:05:10.937Z,25.40
2017-09-10T02:06:10.916Z,26.20
2017-09-10T02:07:10.892Z,24.50
2017-09-10T02:08:10.871Z,27.90
2017-09-10T02:09:10.848Z,23.40
2017-09-10T02:10:10.825Z,19.60
2017-09-10T02:11:10.803Z,23.20
2017-09-10T02:12:10.782Z,22.10
2017-09-10T02:13:10.759Z,22.80
2017-09-10T02:14:10.740Z,20.20
2017-09-10T02:15:10.716Z,16.60
2017-09-10T02:16:10.693Z,17.80
2017-09-10T02:17:10.671Z,21.90
2017-09-10T02:18:10.648Z,17.80
2017-09-10T02:19:10.628Z,18.30
2017-09-10T02:20:10.604Z,18.00
2017-09-10T02:21:10.582Z,17.10
2017-09-10T02:22:10.560Z,16.80
2017-09-10T02:23:10.538Z,16.30
2017-09-10T02:24:10.516Z,16.10
2017-09-10T02:25:10.494Z,15.20
2017-09-10T02:26:10.472Z,16.30
2017-09-10T02:27:10.449Z,14.80
2017-09-10T02:28:10.427Z,15.10
2017-09-10T02:29:10.405Z,17.80
2017-09-10T02:30:10.383Z,15.30
2017-09-10T02:31:10.361Z,16.50
2017-09-10T02:32:10.340Z,16.70
2017-09-10T02:33:10.316Z,14.30
2017-09-10T02:34:10.294Z,15.10
2017-09-10T02:35:10.284Z,14.80
2017-09-10T02:36:10.251Z,17.30
2017-09-10T02:37:10.228Z,14.10
2017-09-10T02:38:10.206Z,15.60
2017-09-10T02:39:10.184Z,12.90
2017-09-10T02:40:10.161Z,13.30
2017-09-10T02:41:10.137Z,15.30
2017-09-10T02:42:10.116Z,13.40
2017-09-10T02:43:10.094Z,18.60
2017-09-10T02:44:10.072Z,12.80
2017-09-10T02:45:10.051Z,15.20
2017-09-10T02:46:10.029Z,13.90
2017-09-10T02:47:10.007Z,13.30
2017-09-10T02:48:09.982Z,13.30
2017-09-10T02:49:09.962Z,11.60
2017-09-10T02:50:09.941Z,14.30
2017-09-10T02:51:09.918Z,14.00
2017-09-10T02:52:09.896Z,11.50
2017-09-10T02:53:09.880Z,13.00
2017-09-10T02:54:09.851Z,12.20
2017-09-10T02:55:09.829Z,13.20
2017-09-10T02:56:09.806Z,14.60
2017-09-10T02:57:09.784Z,11.90
2017-09-10T02:58:09.762Z,12.70
2017-09-10T02:59:09.740Z,12.80
2017-09-10T03:00:09.719Z,13.60
2017-09-10T03:01:09.698Z,11.80
2017-09-10T03:02:09.675Z,13.60
2017-09-10T03:03:09.651Z,13.20
2017-09-10T03:04:09.630Z,10.70
2017-09-10T03:05:09.606Z,11.60
2017-09-10T03:06:09.585Z,10.90
2017-09-10T03:07:09.565Z,13.30
2017-09-10T03:08:09.540Z,12.20
2017-09-10T03:09:09.518Z,10.50
2017-09-10T03:10:09.497Z,11.20
2017-09-10T03:11:09.474Z,14.50
2017-09-10T03:12:09.454Z,10.00
2017-09-10T03:13:09.430Z,14.30
2017-09-10T03:14:09.408Z,11.40
2017-09-10T03:15:09.390Z,10.40
2017-09-10T03:16:09.364Z,13.90
2017-09-10T03:17:09.340Z,9.80
2017-09-10T03:18:09.319Z,10.90
2017-09-10T03:19:09.297Z,10.00
2017-09-10T03:20:09.276Z,9.50
2017-09-10T03:21:09.252Z,11.10
2017-09-10T03:22:09.232Z,11.90
2017-09-10T03:23:09.208Z,10.90
2017-09-10T03:24:09.186Z,10.10
2017-09-10T03:25:09.164Z,9.60
2017-09-10T03:26:09.142Z,11.40
2017-09-10T03:27:09.120Z,9.10
2017-09-10T03:28:09.097Z,9.70
2017-09-10T03:29:09.076Z,8.60
2017-09-10T03:30:09.054Z,9.10
2017-09-10T03:31:09.033Z,8.20
2017-09-10T03:32:09.010Z,8.40
2017-09-10T03:33:08.985Z,9.50
2017-09-10T03:34:08.964Z,9.90
2017-09-10T03:35:08.942Z,8.40
2017-09-10T03:36:08.920Z,10.40
2017-09-10T03:37:08.897Z,13.20
2017-09-10T03:38:08.876Z,9.40
2017-09-10T03:39:08.852Z,9.40
2017-09-10T03:40:08.833Z,10.50
2017-09-10T03:41:08.810Z,10.00
2017-09-10T03:42:08.789Z,7.80
2017-09-10T03:43:08.764Z,8.50
2017-09-10T03:44:08.747Z,9.00
2017-09-10T03:45:08.720Z,8.90
2017-09-10T03:46:08.697Z,6.90
2017-09-10T03:47:08.677Z,7.90
2017-09-10T03:48:08.655Z,7.80
2017-09-10T03:49:08.631Z,9.10
2017-09-10T03:50:08.611Z,6.70
2017-09-10T03:51:08.589Z,8.50
2017-09-10T03:52:08.565Z,7.70
2017-09-10T03:53:08.543Z,8.70
2017-09-10T03:54:08.520Z,8.20
2017-09-10T03:55:08.499Z,7.40
2017-09-10T03:56:08.476Z,8.10
2017-09-10T03:57:08.455Z,6.40
2017-09-10T03:58:08.432Z,7.10
2017-09-10T03:59:08.410Z,8.30
2017-09-10T04:00:08.389Z,8.80
2017-09-10T04:01:08.365Z,8.40
2017-09-10T04:02:08.343Z,7.60
2017-09-10T04:03:08.321Z,6.60
2017-09-10T04:04:08.300Z,7.90
2017-09-10T04:05:08.277Z,5.80
2017-09-10T04:06:08.255Z,6.00
2017-09-10T04:07:08.232Z,6.80
2017-09-10T04:08:08.211Z,6.70
2017-09-10T04:09:08.189Z,6.00
2017-09-10T04:10:08.166Z,8.40
2017-09-10T04:11:08.144Z,7.60
2017-09-10T04:12:08.121Z,7.30
2017-09-10T04:13:08.100Z,6.70
2017-09-10T04:14:08.077Z,7.20
2017-09-10T04:15:08.055Z,6.80
2017-09-10T04:16:08.032Z,6.50
2017-09-10T04:17:08.012Z,6.20
2017-09-10T04:18:07.989Z,7.00
2017-09-10T04:19:07.966Z,7.20
2017-09-10T04:20:07.944Z,6.50
2017-09-10T04:21:07.922Z,5.90
2017-09-10T04:22:07.900Z,5.90
2017-09-10T04:23:07.878Z,7.80
2017-09-10T04:24:07.856Z,6.30
2017-09-10T04:25:07.832Z,6.40
2017-09-10T04:26:07.816Z,6.70
2017-09-10T04:27:07.789Z,6.60
2017-09-10T04:28:07.767Z,6.90
2017-09-10T04:29:07.743Z,7.30
2017-09-10T04:30:07.723Z,5.70
2017-09-10T04:31:07.700Z,5.90
2017-09-10T04:32:07.681Z,8.90
2017-09-10T04:33:07.656Z,6.20
2017-09-10T04:34:07.634Z,9.40
2017-09-10T04:35:07.611Z,6.60
2017-09-10T04:36:07.589Z,5.70
2017-09-10T04:37:07.566Z,6.70
2017-09-10T04:38:07.545Z,6.50
2017-09-10T04:39:07.547Z,6.30
2017-09-10T04:40:07.501Z,7.50
2017-09-10T04:41:07.478Z,5.70
2017-09-10T04:42:07.457Z,7.30
2017-09-10T04:43:07.434Z,5.90
2017-09-10T04:44:07.412Z,7.00
2017-09-10T04:45:07.390Z,5.60
2017-09-10T04:46:07.368Z,6.60
2017-09-10T04:47:07.346Z,6.70
2017-09-10T04:48:07.324Z,5.50
2017-09-10T04:49:07.301Z,7.80
2017-09-10T04:50:07.280Z,5.60
2017-09-10T04:51:07.257Z,5.80
2017-09-10T04:52:07.235Z,5.50
2017-09-10T04:53:07.212Z,6.40
2017-09-10T04:54:07.191Z,5.60
2017-09-10T04:55:07.168Z,6.30
2017-09-10T04:56:07.148Z,7.20
2017-09-10T04:57:07.123Z,5.50
2017-09-10T04:58:07.103Z,6.30
2017-09-10T04:59:07.079Z,5.40
2017-09-10T05:00:07.057Z,6.20
2017-09-10T05:01:07.035Z,6.50
2017-09-10T05:02:07.013Z,6.00
2017-09-10T05:03:06.991Z,6.90
2017-09-10T05:04:06.968Z,6.20
2017-09-10T05:05:06.946Z,5.10
2017-09-10T05:06:06.925Z,6.40
2017-09-10T05:07:06.902Z,7.50
2017-09-10T05:08:06.880Z,6.10
2017-09-10T05:09:06.858Z,5.60
2017-09-10T05:10:06.837Z,6.90
2017-09-10T05:11:06.813Z,5.80
2017-09-10T05:12:06.791Z,5.40
2017-09-10T05:13:06.769Z,6.70
2017-09-10T05:14:06.745Z,5.00
2017-09-10T05:15:06.724Z,5.90
2017-09-10T05:16:06.703Z,8.00
2017-09-10T05:17:06.680Z,9.60
2017-09-10T05:18:06.658Z,8.20
2017-09-10T05:19:06.636Z,8.30
2017-09-10T05:20:06.613Z,11.40
2017-09-10T05:21:06.591Z,6.20
2017-09-10T05:22:06.572Z,8.00
2017-09-10T05:23:06.548Z,8.50
2017-09-10T05:24:06.526Z,6.30
2017-09-10T05:25:06.504Z,8.40
2017-09-10T05:26:06.480Z,8.40
2017-09-10T05:27:06.460Z,7.60
2017-09-10T05:28:06.436Z,6.10
2017-09-10T05:29:06.414Z,6.20
2017-09-10T05:30:06.391Z,6.90
2017-09-10T05:31:06.369Z,5.10
2017-09-10T05:32:06.348Z,6.90
2017-09-10T05:33:06.326Z,5.30
2017-09-10T05:34:06.303Z,7.20
2017-09-10T05:35:06.286Z,6.70
2017-09-10T05:36:06.258Z,4.80
2017-09-10T05:37:06.236Z,7.10
2017-09-10T05:38:06.216Z,7.50
2017-09-10T05:39:06.193Z,6.20
2017-09-10T05:40:06.172Z,6.30
2017-09-10T05:41:06.147Z,7.00
2017-09-10T05:42:06.126Z,6.90
2017-09-10T05:43:06.106Z,5.10
2017-09-10T05:44:06.081Z,6.70
2017-09-10T05:45:06.058Z,5.30
2017-09-10T05:46:06.038Z,7.60
2017-09-10T05:47:06.019Z,4.90
2017-09-10T05:48:05.994Z,5.20
2017-09-10T05:49:05.976Z,4.50
2017-09-10T05:50:05.950Z,6.30
2017-09-10T05:51:05.926Z,4.40
2017-09-10T05:52:05.906Z,7.40
2017-09-10T05:53:05.881Z,6.40
2017-09-10T05:54:05.860Z,5.40
2017-09-10T05:55:05.838Z,4.70
2017-09-10T05:56:05.816Z,4.20
2017-09-10T05:57:05.793Z,4.40
2017-09-10T05:58:05.770Z,6.00
2017-09-10T05:59:05.750Z,5.40
2017-09-10T06:00:05.727Z,6.40
2017-09-10T06:01:05.704Z,6.80
2017-09-10T06:02:05.682Z,7.10
2017-09-10T06:03:05.661Z,4.80
2017-09-10T06:04:05.641Z,4.40
2017-09-10T06:05:05.617Z,5.60
2017-09-10T06:06:05.593Z,6.50
2017-09-10T06:07:05.571Z,5.50
2017-09-10T06:08:05.551Z,5.40
2017-09-10T06:09:05.526Z,4.90
2017-09-10T06:10:05.504Z,6.60
2017-09-10T06:11:05.481Z,5.00
2017-09-10T06:12:05.464Z,4.10
2017-09-10T06:13:05.437Z,6.00
2017-09-10T06:14:05.416Z,4.40
2017-09-10T06:15:05.394Z,6.30
2017-09-10T06:16:05.372Z,6.50
2017-09-10T06:17:05.349Z,5.00
2017-09-10T06:18:05.332Z,4.20
2017-09-10T06:19:05.305Z,5.60
2017-09-10T06:20:05.285Z,5.80
2017-09-10T06:21:05.260Z,7.60
2017-09-10T06:22:05.240Z,4.80
2017-09-10T06:23:05.217Z,4.10
2017-09-10T06:24:05.195Z,7.40
2017-09-10T06:25:05.172Z,7.40
2017-09-10T06:26:05.150Z,5.90
2017-09-10T06:27:05.128Z,5.60
2017-09-10T06:28:05.106Z,4.90
2017-09-10T06:29:05.082Z,6.50
2017-09-10T06:30:05.061Z,5.40
2017-09-10T06:31:05.039Z,4.70
2017-09-10T06:32:05.018Z,5.70
2017-09-10T06:33:04.996Z,5.40
2017-09-10T06:34:04.972Z,4.80
2017-09-10T06:35:04.951Z,5.90
2017-09-10T06:36:04.928Z,4.40
2017-09-10T06:37:04.905Z,4.60
2017-09-10T06:38:04.883Z,5.60
2017-09-10T06:39:04.861Z,7.30
2017-09-10T06:40:04.840Z,7.70
2017-09-10T06:41:04.818Z,6.40
2017-09-10T06:42:04.798Z,6.00
2017-09-10T06:43:04.775Z,5.10
2017-09-10T06:44:04.751Z,4.50
2017-09-10T06:45:04.728Z,5.70
2017-09-10T06:46:04.707Z,4.60
2017-09-10T06:47:04.711Z,4.70
2017-09-10T06:48:04.662Z,5.70
2017-09-10T06:49:04.639Z,4.10
2017-09-10T06:50:04.618Z,4.30
2017-09-10T06:51:04.597Z,3.80
2017-09-10T06:52:04.575Z,4.30
2017-09-10T06:53:04.550Z,4.40
2017-09-10T06:54:04.528Z,5.20
2017-09-10T06:55:04.506Z,7.40
2017-09-10T06:56:04.486Z,5.80
2017-09-10T06:57:04.462Z,3.60
2017-09-10T06:58:04.441Z,3.90
2017-09-10T06:59:04.418Z,5.00
2017-09-10T07:00:04.397Z,3.60
2017-09-10T07:01:04.373Z,3.90
2017-09-10T07:02:04.353Z,7.30
2017-09-10T07:03:04.330Z,4.20
2017-09-10T07:04:04.309Z,7.50
2017-09-10T07:05:04.287Z,6.90
2017-09-10T07:06:04.262Z,3.90
2017-09-10T07:07:04.241Z,6.80
2017-09-10T07:08:04.220Z,5.00
2017-09-10T07:09:04.196Z,4.40
2017-09-10T07:10:04.175Z,7.40
2017-09-10T07:11:04.153Z,5.50
2017-09-10T07:12:04.130Z,4.40
2017-09-10T07:13:04.107Z,6.40
2017-09-10T07:14:04.085Z,5.30
2017-09-10T07:15:04.063Z,4.90
2017-09-10T07:16:04.041Z,8.00
2017-09-10T07:17:04.018Z,8.40
2017-09-10T07:18:03.997Z,7.40
2017-09-10T07:19:03.975Z,6.70
2017-09-10T07:20:03.956Z,7.20
2017-09-10T07:21:03.936Z,6.10
2017-09-10T07:22:03.911Z,5.10
2017-09-10T07:23:03.887Z,6.50
2017-09-10T07:24:03.868Z,5.30
2017-09-10T07:25:03.841Z,7.80
2017-09-10T07:26:03.820Z,7.30
2017-09-10T07:27:03.798Z,6.80
2017-09-10T07:28:03.776Z,10.10
2017-09-10T07:29:03.759Z,7.10
2017-09-10T07:30:03.732Z,6.00
2017-09-10T07:31:03.713Z,5.60
2017-09-10T07:32:03.689Z,13.30
2017-09-10T07:33:03.667Z,11.30
2017-09-10T07:34:03.642Z,10.40
2017-09-10T07:35:03.621Z,13.40
2017-09-10T07:36:03.598Z,12.40
2017-09-10T07:37:03.575Z,11.90
2017-09-10T07:38:03.555Z,11.30
2017-09-10T07:39:03.532Z,9.70
2017-09-10T07:40:03.511Z,16.00
2017-09-10T07:41:03.488Z,18.10
2017-09-10T07:42:03.500Z,13.40
2017-09-10T07:43:03.444Z,11.30
2017-09-10T07:44:03.423Z,13.40
2017-09-10T07:45:03.400Z,14.80
2017-09-10T07:46:03.379Z,18.80
2017-09-10T07:47:03.356Z,15.00
2017-09-10T07:48:03.336Z,15.80
2017-09-10T07:49:03.311Z,19.40
2017-09-10T07:50:03.288Z,23.20
2017-09-10T07:51:03.271Z,22.30
2017-09-10T07:52:03.245Z,36.00
2017-09-10T07:53:03.226Z,34.40
2017-09-10T07:54:03.203Z,29.90
2017-09-10T07:55:03.179Z,33.80
2017-09-10T07:56:03.158Z,42.20
2017-09-10T07:57:03.135Z,76.70
2017-09-10T07:58:03.112Z,90.40
2017-09-10T07:59:03.090Z,79.60
2017-09-10T08:00:03.070Z,110.00
2017-09-10T08:01:03.049Z,158.70
2017-09-10T08:02:03.026Z,195.60
2017-09-10T08:03:03.002Z,218.00
2017-09-10T08:04:02.980Z,232.90
2017-09-10T08:05:02.960Z,274.20
2017-09-10T08:06:02.938Z,299.40
2017-09-10T08:07:02.914Z,284.30
2017-09-10T08:08:02.894Z,324.90
2017-09-10T08:09:02.870Z,318.90
2017-09-10T08:10:02.849Z,336.60
2017-09-10T08:11:02.827Z,348.00
2017-09-10T08:12:02.804Z,351.90
2017-09-10T08:13:02.782Z,359.50
2017-09-10T08:14:02.760Z,346.50
2017-09-10T08:15:02.740Z,347.30
2017-09-10T08:16:02.718Z,372.20
2017-09-10T08:17:02.696Z,348.90
2017-09-10T08:18:02.673Z,357.20
2017-09-10T08:19:02.654Z,321.00
2017-09-10T08:20:02.629Z,336.70
2017-09-10T08:21:02.607Z,336.20
2017-09-10T08:22:02.584Z,332.00
2017-09-10T08:23:02.563Z,324.90
2017-09-10T08:24:02.542Z,328.40
2017-09-10T08:25:02.518Z,328.10
2017-09-10T08:26:02.498Z,342.10
2017-09-10T08:27:02.475Z,333.10
2017-09-10T08:28:02.453Z,338.30
2017-09-10T08:29:02.430Z,313.80
2017-09-10T08:30:02.409Z,313.00
2017-09-10T08:31:02.389Z,310.70
2017-09-10T08:32:02.365Z,309.70
2017-09-10T08:33:02.344Z,322.70
2017-09-10T08:34:02.321Z,305.10
2017-09-10T08:35:02.300Z,309.80
2017-09-10T08:36:02.277Z,287.50
2017-09-10T08:37:02.255Z,289.60
2017-09-10T08:38:02.234Z,304.20
2017-09-10T08:39:02.212Z,289.60
2017-09-10T08:40:02.189Z,305.20
2017-09-10T08:41:02.167Z,287.40
2017-09-10T08:42:02.147Z,287.50
2017-09-10T08:43:02.126Z,262.00
2017-09-10T08:44:02.102Z,300.40
2017-09-10T08:45:02.082Z,275.70
2017-09-10T08:46:02.061Z,280.80
2017-09-10T08:47:02.038Z,272.40
2017-09-10T08:48:02.014Z,272.60
2017-09-10T08:49:01.991Z,259.90
2017-09-10T08:50:01.971Z,259.00
2017-09-10T08:51:01.951Z,254.70
2017-09-10T08:52:01.927Z,266.20
2017-09-10T08:53:01.904Z,251.90
2017-09-10T08:54:01.882Z,250.20
2017-09-10T08:55:01.861Z,255.70
2017-09-10T08:56:01.841Z,240.40
2017-09-10T08:57:01.816Z,255.50
2017-09-10T08:58:01.794Z,226.50
2017-09-10T08:59:01.773Z,234.60
2017-09-10T09:00:01.751Z,253.70
2017-09-10T09:01:01.728Z,242.60
2017-09-10T09:02:01.706Z,220.80
2017-09-10T09:03:01.687Z,238.90
2017-09-10T09:04:01.664Z,233.50
2017-09-10T09:05:01.641Z,243.40
2017-09-10T09:06:01.620Z,244.10
2017-09-10T09:07:01.599Z,227.00
2017-09-10T09:08:01.575Z,236.20
2017-09-10T09:09:01.552Z,225.20
2017-09-10T09:10:01.531Z,228.80
2017-09-10T09:11:01.511Z,226.30
2017-09-10T09:12:01.490Z,234.40
2017-09-10T09:13:01.465Z,220.00
2017-09-10T09:14:01.445Z,214.10
2017-09-10T09:15:01.423Z,206.70
2017-09-10T09:16:01.400Z,218.90
2017-09-10T09:17:01.377Z,214.10
2017-09-10T09:18:01.355Z,212.10
2017-09-10T09:19:01.335Z,213.10
2017-09-10T09:20:01.313Z,207.30
2017-09-10T09:21:01.291Z,213.60
2017-09-10T09:22:01.268Z,200.60
2017-09-10T09:23:01.246Z,193.10
2017-09-10T09:24:01.224Z,204.00
2017-09-10T09:25:01.205Z,201.70
2017-09-10T09:26:01.180Z,197.20
2017-09-10T09:27:01.160Z,197.70
2017-09-10T09:28:01.137Z,212.20
2017-09-10T09:29:01.116Z,185.50
2017-09-10T09:30:01.093Z,189.10
2017-09-10T09:31:01.073Z,202.70
2017-09-10T09:32:01.049Z,188.60
2017-09-10T09:33:01.027Z,196.00
2017-09-10T09:34:01.004Z,190.50
2017-09-10T09:35:00.984Z,198.50
2017-09-10T09:36:00.961Z,187.00
2017-09-10T09:37:00.939Z,185.10
2017-09-10T09:38:00.918Z,198.30
2017-09-10T09:39:00.897Z,188.10
2017-09-10T09:40:00.874Z,186.40
2017-09-10T09:41:00.852Z,195.60
2017-09-10T09:42:00.834Z,191.90
2017-09-10T09:43:00.808Z,193.70
2017-09-10T09:44:00.787Z,185.80
2017-09-10T09:45:00.767Z,179.00
2017-09-10T09:46:00.742Z,175.40
2017-09-10T09:47:00.721Z,183.70
2017-09-10T09:48:00.700Z,178.60
2017-09-10T09:49:00.678Z,181.30
2017-09-10T09:50:00.654Z,159.50
2017-09-10T09:51:00.634Z,167.10
2017-09-10T09:52:00.612Z,173.70
2017-09-10T09:53:00.589Z,167.20
2017-09-10T09:54:00.567Z,160.90
2017-09-10T09:55:00.546Z,172.10
2017-09-10T09:56:00.723Z,175.30
2017-09-10T09:57:00.501Z,167.90
2017-09-10T09:58:00.480Z,163.10
2017-09-10T09:59:00.458Z,169.20
2017-09-10T10:00:00.437Z,169.10
2017-09-10T10:01:00.416Z,161.20
2017-09-10T10:02:00.393Z,161.80
2017-09-10T10:03:00.371Z,167.30
2017-09-10T10:04:00.350Z,161.10
2017-09-10T10:05:00.328Z,152.90
2017-09-10T10:06:00.305Z,153.70
2017-09-10T10:07:00.285Z,139.80
2017-09-10T10:08:00.264Z,136.90
2017-09-10T10:09:00.240Z,130.60
2017-09-10T10:10:00.221Z,139.10
2017-09-10T10:11:00.198Z,122.30
2017-09-10T10:12:00.177Z,122.40
2017-09-10T10:13:00.155Z,128.80
2017-09-10T10:14:00.132Z,127.10
2017-09-10T10:15:00.109Z,130.30
2017-09-10T10:16:00.089Z,126.10
2017-09-10T10:17:00.067Z,128.50
2017-09-10T10:18:00.047Z,120.40
2017-09-10T10:19:00.025Z,126.90
2017-09-10T10:20:00.003Z,127.70
2017-09-10T10:20:59.979Z,116.80
2017-09-10T10:21:59.959Z,107.90
2017-09-10T10:22:59.937Z,117.20
2017-09-10T10:23:59.916Z,110.50
2017-09-10T10:24:59.894Z,110.70
2017-09-10T10:25:59.872Z,120.70
2017-09-10T10:26:59.851Z,120.80
2017-09-10T10:27:59.830Z,120.20
2017-09-10T10:28:59.807Z,114.10
2017-09-10T10:29:59.785Z,109.80
2017-09-10T10:30:59.764Z,111.40
2017-09-10T10:31:59.745Z,105.70
2017-09-10T10:32:59.722Z,105.30
2017-09-10T10:33:59.699Z,110.00
2017-09-10T10:34:59.678Z,106.20
2017-09-10T10:35:59.656Z,104.40
2017-09-10T10:36:59.636Z,103.30
2017-09-10T10:37:59.613Z,97.20
2017-09-10T10:38:59.597Z,104.90
2017-09-10T10:39:59.569Z,96.90
2017-09-10T10:40:59.550Z,93.10
2017-09-10T10:41:59.526Z,107.70
2017-09-10T10:42:59.505Z,94.80
2017-09-10T10:43:59.484Z,94.60
2017-09-10T10:44:59.461Z,98.70
2017-09-10T10:45:59.438Z,95.80
2017-09-10T10:46:59.418Z,91.90
2017-09-10T10:47:59.619Z,91.30
2017-09-10T10:48:59.595Z,91.50
2017-09-10T10:49:59.355Z,94.70
2017-09-10T10:50:59.332Z,95.70
2017-09-10T10:51:59.311Z,94.70
2017-09-10T10:52:59.294Z,90.70
2017-09-10T10:53:59.267Z,89.90
2017-09-10T10:54:59.248Z,89.80
2017-09-10T10:55:59.224Z,80.80
2017-09-10T10:56:59.206Z,88.30
2017-09-10T10:57:59.182Z,88.20
2017-09-10T10:58:59.159Z,83.90
2017-09-10T10:59:59.142Z,88.50
2017-09-10T11:00:59.116Z,80.20
2017-09-10T11:01:59.097Z,85.40
2017-09-10T11:02:59.073Z,83.40
2017-09-10T11:03:59.052Z,82.90
2017-09-10T11:04:59.029Z,93.60
2017-09-10T11:05:59.010Z,80.70
2017-09-10T11:06:58.988Z,74.50
2017-09-10T11:07:58.967Z,75.40
2017-09-10T11:08:58.943Z,77.40
2017-09-10T11:09:58.922Z,76.80
2017-09-10T11:10:58.901Z,80.70
2017-09-10T11:11:58.881Z,81.70
2017-09-10T11:12:58.858Z,79.20
2017-09-10T11:13:58.837Z,78.00
2017-09-10T11:14:58.815Z,75.20
2017-09-10T11:15:58.794Z,76.90
2017-09-10T11:16:58.772Z,74.20
2017-09-10T11:17:58.750Z,72.20
2017-09-10T11:18:58.730Z,78.20
2017-09-10T11:19:58.710Z,75.60
2017-09-10T11:20:58.686Z,77.00
2017-09-10T11:21:58.663Z,75.60
2017-09-10T11:22:58.642Z,72.90
2017-09-10T11:23:58.626Z,74.10
2017-09-10T11:24:58.599Z,66.40
2017-09-10T11:25:58.579Z,69.10
2017-09-10T11:26:58.557Z,67.50
2017-09-10T11:27:58.535Z,72.90
2017-09-10T11:28:58.513Z,69.20
2017-09-10T11:29:58.497Z,74.80
2017-09-10T11:30:58.471Z,70.40
2017-09-10T11:31:58.449Z,67.30
2017-09-10T11:32:58.426Z,62.00
2017-09-10T11:33:58.410Z,71.80
2017-09-10T11:34:58.384Z,70.80
2017-09-10T11:35:58.364Z,71.80
2017-09-10T11:36:58.340Z,64.00
2017-09-10T11:37:58.319Z,68.50
2017-09-10T11:38:58.298Z,67.30
2017-09-10T11:39:58.276Z,61.60
2017-09-10T11:40:58.254Z,58.00
2017-09-10T11:41:58.233Z,63.90
2017-09-10T11:42:58.211Z,65.50
2017-09-10T11:43:58.190Z,62.20
2017-09-10T11:44:58.176Z,65.30
2017-09-10T11:45:58.147Z,65.20
2017-09-10T11:46:58.125Z,61.30
2017-09-10T11:47:58.106Z,58.10
2017-09-10T11:48:58.082Z,59.90
2017-09-10T11:49:58.061Z,66.80
2017-09-10T11:50:58.041Z,68.10
2017-09-10T11:51:58.018Z,61.00
2017-09-10T11:52:58.001Z,65.10
2017-09-10T11:53:57.975Z,57.50
2017-09-10T11:54:57.953Z,57.10
2017-09-10T11:55:57.933Z,55.30
2017-09-10T11:56:57.909Z,51.70
2017-09-10T11:57:57.890Z,45.00
2017-09-10T11:58:57.903Z,51.10
2017-09-10T11:59:57.844Z,45.20
2017-09-10T12:00:57.822Z,52.30
2017-09-10T12:01:57.802Z,51.20
2017-09-10T12:02:57.780Z,54.40
2017-09-10T12:03:57.759Z,51.70
2017-09-10T12:04:57.737Z,52.10
2017-09-10T12:05:57.715Z,50.10
2017-09-10T12:06:57.695Z,46.50
2017-09-10T12:07:57.672Z,44.00
2017-09-10T12:08:57.651Z,43.60
2017-09-10T12:09:57.661Z,46.70
2017-09-10T12:10:57.608Z,46.00
2017-09-10T12:11:57.586Z,49.30
2017-09-10T12:12:57.565Z,45.10
2017-09-10T12:13:57.547Z,43.90
2017-09-10T12:14:57.521Z,49.70
2017-09-10T12:15:57.500Z,44.50
2017-09-10T12:16:57.478Z,40.30
2017-09-10T12:17:57.456Z,44.90
2017-09-10T12:18:57.437Z,44.30
2017-09-10T12:19:57.413Z,43.90
2017-09-10T12:20:57.391Z,44.80
2017-09-10T12:21:57.370Z,52.00
2017-09-10T12:22:57.348Z,43.90
2017-09-10T12:23:57.327Z,33.10
2017-09-10T12:24:57.305Z,32.60
2017-09-10T12:25:57.284Z,35.90
2017-09-10T12:26:57.263Z,35.90
2017-09-10T12:27:57.242Z,36.00
2017-09-10T12:28:57.218Z,31.30
2017-09-10T12:29:57.196Z,37.30
2017-09-10T12:30:57.175Z,32.80
2017-09-10T12:31:57.154Z,36.60
2017-09-10T12:32:57.134Z,38.30
2017-09-10T12:33:57.111Z,34.80
2017-09-10T12:34:57.089Z,37.00
2017-09-10T12:35:57.068Z,38.50
2017-09-10T12:36:57.045Z,39.60
2017-09-10T12:37:57.025Z,32.30
2017-09-10T12:38:57.003Z,40.90
2017-09-10T12:39:56.982Z,36.60
2017-09-10T12:40:56.959Z,32.90
2017-09-10T12:41:56.939Z,33.80
2017-09-10T12:42:56.917Z,28.10
2017-09-10T12:43:56.895Z,33.20
2017-09-10T12:44:56.872Z,27.40
2017-09-10T12:45:56.853Z,29.70
2017-09-10T12:46:56.831Z,26.90
2017-09-10T12:47:56.809Z,28.50
2017-09-10T12:48:56.790Z,26.40
2017-09-10T12:49:56.765Z,27.40
2017-09-10T12:50:56.744Z,24.90
2017-09-10T12:51:56.725Z,25.70
2017-09-10T12:52:56.700Z,28.90
2017-09-10T12:53:56.679Z,29.80
2017-09-10T12:54:56.657Z,26.10